sensor_id;sensor_type;location;lat;lon;timestamp;temperature;humidity
18392;DHT22;9322;50.932;5.318;2023-04-03T00:01:15;3.60;99.90
18392;DHT22;9322;50.932;5.318;2023-04-03T00:03:41;3.30;99.90
18392;DHT22;9322;50.932;5.318;2023-04-03T00:06:08;3.40;99.90
18392;DHT22;9322;50.932;5.318;2023-04-03T00:08:35;3.30;99.90
18392;DHT22;9322;50.932;5.318;2023-04-03T00:11:01;3.30;99.90
18392;DHT22;9322;50.932;5.318;2023-04-03T00:13:28;3.50;99.90
18392;DHT22;9322;50.932;5.318;2023-04-03T00:15:54;3.30;99.90
18392;DHT22;9322;50.932;5.318;2023-04-03T00:18:20;3.30;99.90
18392;DHT22;9322;50.932;5.318;2023-04-03T00:20:45;3.30;99.90
18392;DHT22;9322;50.932;5.318;2023-04-03T00:23:11;3.30;99.90
18392;DHT22;9322;50.932;5.318;2023-04-03T00:25:37;3.30;99.90
18392;DHT22;9322;50.932;5.318;2023-04-03T00:28:03;3.20;99.90
18392;DHT22;9322;50.932;5.318;2023-04-03T00:30:29;3.30;99.90
18392;DHT22;9322;50.932;5.318;2023-04-03T00:32:55;3.50;99.90
18392;DHT22;9322;50.932;5.318;2023-04-03T00:35:22;3.40;99.90
18392;DHT22;9322;50.932;5.318;2023-04-03T00:37:50;3.40;99.90
18392;DHT22;9322;50.932;5.318;2023-04-03T00:40:16;3.40;99.90
18392;DHT22;9322;50.932;5.318;2023-04-03T00:42:43;3.30;99.90
18392;DHT22;9322;50.932;5.318;2023-04-03T00:45:33;3.30;99.90
18392;DHT22;9322;50.932;5.318;2023-04-03T00:48:01;3.20;99.90
18392;DHT22;9322;50.932;5.318;2023-04-03T00:50:29;3.30;99.90
18392;DHT22;9322;50.932;5.318;2023-04-03T00:52:56;3.20;99.90
18392;DHT22;9322;50.932;5.318;2023-04-03T00:55:22;3.10;99.90
18392;DHT22;9322;50.932;5.318;2023-04-03T00:57:48;3.10;99.90
18392;DHT22;9322;50.932;5.318;2023-04-03T01:00:17;3.00;99.90
18392;DHT22;9322;50.932;5.318;2023-04-03T01:02:44;3.00;99.90
18392;DHT22;9322;50.932;5.318;2023-04-03T01:05:10;2.90;99.90
18392;DHT22;9322;50.932;5.318;2023-04-03T01:07:36;2.90;99.90
18392;DHT22;9322;50.932;5.318;2023-04-03T01:10:09;2.90;99.90
18392;DHT22;9322;50.932;5.318;2023-04-03T01:12:37;2.80;99.90
18392;DHT22;9322;50.932;5.318;2023-04-03T01:15:10;2.90;99.90
18392;DHT22;9322;50.932;5.318;2023-04-03T01:17:53;2.90;99.90
18392;DHT22;9322;50.932;5.318;2023-04-03T01:25:29;2.90;99.90
18392;DHT22;9322;50.932;5.318;2023-04-03T01:27:55;3.10;99.90
18392;DHT22;9322;50.932;5.318;2023-04-03T01:30:25;3.10;99.90
18392;DHT22;9322;50.932;5.318;2023-04-03T01:32:52;3.00;99.90
18392;DHT22;9322;50.932;5.318;2023-04-03T01:35:18;3.00;99.90
18392;DHT22;9322;50.932;5.318;2023-04-03T01:37:43;2.90;99.90
18392;DHT22;9322;50.932;5.318;2023-04-03T01:40:09;2.80;99.90
18392;DHT22;9322;50.932;5.318;2023-04-03T01:42:35;2.80;99.90
18392;DHT22;9322;50.932;5.318;2023-04-03T01:45:01;2.90;99.90
18392;DHT22;9322;50.932;5.318;2023-04-03T01:47:26;2.80;99.90
18392;DHT22;9322;50.932;5.318;2023-04-03T01:49:52;2.80;99.90
18392;DHT22;9322;50.932;5.318;2023-04-03T01:52:18;2.80;99.90
18392;DHT22;9322;50.932;5.318;2023-04-03T01:54:43;2.80;99.90
18392;DHT22;9322;50.932;5.318;2023-04-03T01:57:09;2.80;99.90
18392;DHT22;9322;50.932;5.318;2023-04-03T01:59:35;2.70;99.90
18392;DHT22;9322;50.932;5.318;2023-04-03T02:02:01;2.80;99.90
18392;DHT22;9322;50.932;5.318;2023-04-03T02:04:27;2.70;99.90
18392;DHT22;9322;50.932;5.318;2023-04-03T02:06:52;2.60;99.90
18392;DHT22;9322;50.932;5.318;2023-04-03T02:09:18;2.70;99.90
18392;DHT22;9322;50.932;5.318;2023-04-03T02:11:44;2.70;99.90
18392;DHT22;9322;50.932;5.318;2023-04-03T02:14:09;2.70;99.90
18392;DHT22;9322;50.932;5.318;2023-04-03T02:16:35;2.60;99.90
18392;DHT22;9322;50.932;5.318;2023-04-03T02:19:01;2.60;99.90
18392;DHT22;9322;50.932;5.318;2023-04-03T02:21:27;2.60;99.90
18392;DHT22;9322;50.932;5.318;2023-04-03T02:23:53;2.50;99.90
18392;DHT22;9322;50.932;5.318;2023-04-03T02:26:18;2.50;99.90
18392;DHT22;9322;50.932;5.318;2023-04-03T02:28:45;2.50;99.90
18392;DHT22;9322;50.932;5.318;2023-04-03T02:31:11;2.40;99.90
18392;DHT22;9322;50.932;5.318;2023-04-03T02:33:37;2.30;99.90
18392;DHT22;9322;50.932;5.318;2023-04-03T02:36:05;2.30;99.90
18392;DHT22;9322;50.932;5.318;2023-04-03T02:38:31;2.30;99.90
18392;DHT22;9322;50.932;5.318;2023-04-03T02:41:01;2.30;99.90
18392;DHT22;9322;50.932;5.318;2023-04-03T02:43:27;2.30;99.90
18392;DHT22;9322;50.932;5.318;2023-04-03T02:45:52;2.30;99.90
18392;DHT22;9322;50.932;5.318;2023-04-03T02:48:18;2.30;99.90
18392;DHT22;9322;50.932;5.318;2023-04-03T02:50:44;2.40;99.90
18392;DHT22;9322;50.932;5.318;2023-04-03T02:53:09;2.40;99.90
18392;DHT22;9322;50.932;5.318;2023-04-03T02:55:35;2.20;99.90
18392;DHT22;9322;50.932;5.318;2023-04-03T02:58:01;2.10;99.90
18392;DHT22;9322;50.932;5.318;2023-04-03T03:00:26;2.10;99.90
18392;DHT22;9322;50.932;5.318;2023-04-03T03:02:52;2.20;99.90
18392;DHT22;9322;50.932;5.318;2023-04-03T03:05:18;2.20;99.90
18392;DHT22;9322;50.932;5.318;2023-04-03T03:07:43;2.20;99.90
18392;DHT22;9322;50.932;5.318;2023-04-03T03:10:09;2.20;99.90
18392;DHT22;9322;50.932;5.318;2023-04-03T03:12:35;2.10;99.90
18392;DHT22;9322;50.932;5.318;2023-04-03T03:15:00;2.20;99.90
18392;DHT22;9322;50.932;5.318;2023-04-03T03:17:26;2.30;99.90
18392;DHT22;9322;50.932;5.318;2023-04-03T03:19:52;2.10;99.90
18392;DHT22;9322;50.932;5.318;2023-04-03T03:22:19;2.10;99.90
18392;DHT22;9322;50.932;5.318;2023-04-03T03:24:45;2.00;99.90
18392;DHT22;9322;50.932;5.318;2023-04-03T03:27:11;1.90;99.90
18392;DHT22;9322;50.932;5.318;2023-04-03T03:29:37;1.90;99.90
18392;DHT22;9322;50.932;5.318;2023-04-03T03:32:03;1.80;99.90
18392;DHT22;9322;50.932;5.318;2023-04-03T03:34:29;1.70;99.90
18392;DHT22;9322;50.932;5.318;2023-04-03T03:36:54;1.60;99.90
18392;DHT22;9322;50.932;5.318;2023-04-03T03:39:20;1.50;99.90
18392;DHT22;9322;50.932;5.318;2023-04-03T03:41:46;1.50;99.90
18392;DHT22;9322;50.932;5.318;2023-04-03T03:44:12;1.60;99.90
18392;DHT22;9322;50.932;5.318;2023-04-03T03:46:38;1.60;99.90
18392;DHT22;9322;50.932;5.318;2023-04-03T03:49:04;1.70;99.90
18392;DHT22;9322;50.932;5.318;2023-04-03T03:51:29;1.90;99.90
18392;DHT22;9322;50.932;5.318;2023-04-03T03:53:55;2.00;99.90
18392;DHT22;9322;50.932;5.318;2023-04-03T03:56:21;2.00;99.90
18392;DHT22;9322;50.932;5.318;2023-04-03T03:58:47;1.90;99.90
18392;DHT22;9322;50.932;5.318;2023-04-03T04:01:13;2.00;99.90
18392;DHT22;9322;50.932;5.318;2023-04-03T04:03:39;1.80;99.90
18392;DHT22;9322;50.932;5.318;2023-04-03T04:06:05;1.80;99.90
18392;DHT22;9322;50.932;5.318;2023-04-03T04:08:30;1.70;99.90
18392;DHT22;9322;50.932;5.318;2023-04-03T04:10:56;1.80;99.90
18392;DHT22;9322;50.932;5.318;2023-04-03T04:13:22;1.80;99.90
18392;DHT22;9322;50.932;5.318;2023-04-03T04:15:47;1.90;99.90
18392;DHT22;9322;50.932;5.318;2023-04-03T04:18:13;1.80;99.90
18392;DHT22;9322;50.932;5.318;2023-04-03T04:20:38;1.90;99.90
18392;DHT22;9322;50.932;5.318;2023-04-03T04:23:04;1.80;99.90
18392;DHT22;9322;50.932;5.318;2023-04-03T04:25:30;1.70;99.90
18392;DHT22;9322;50.932;5.318;2023-04-03T04:27:56;1.60;99.90
18392;DHT22;9322;50.932;5.318;2023-04-03T04:30:21;1.50;99.90
18392;DHT22;9322;50.932;5.318;2023-04-03T04:32:47;1.60;99.90
18392;DHT22;9322;50.932;5.318;2023-04-03T04:35:12;1.60;99.90
18392;DHT22;9322;50.932;5.318;2023-04-03T04:37:38;1.60;99.90
18392;DHT22;9322;50.932;5.318;2023-04-03T04:40:04;1.50;99.90
18392;DHT22;9322;50.932;5.318;2023-04-03T04:42:30;1.50;99.90
18392;DHT22;9322;50.932;5.318;2023-04-03T04:44:56;1.50;99.90
18392;DHT22;9322;50.932;5.318;2023-04-03T04:47:21;1.60;99.90
18392;DHT22;9322;50.932;5.318;2023-04-03T04:49:47;1.60;99.90
18392;DHT22;9322;50.932;5.318;2023-04-03T04:52:13;1.60;99.90
18392;DHT22;9322;50.932;5.318;2023-04-03T04:54:38;1.70;99.90
18392;DHT22;9322;50.932;5.318;2023-04-03T04:57:04;1.70;99.90
18392;DHT22;9322;50.932;5.318;2023-04-03T04:59:30;1.70;99.90
18392;DHT22;9322;50.932;5.318;2023-04-03T05:01:55;1.80;99.90
18392;DHT22;9322;50.932;5.318;2023-04-03T05:04:21;1.70;99.90
18392;DHT22;9322;50.932;5.318;2023-04-03T05:06:47;1.70;99.90
18392;DHT22;9322;50.932;5.318;2023-04-03T05:09:12;1.80;99.90
18392;DHT22;9322;50.932;5.318;2023-04-03T05:11:38;1.70;99.90
18392;DHT22;9322;50.932;5.318;2023-04-03T05:14:04;1.70;99.90
18392;DHT22;9322;50.932;5.318;2023-04-03T05:16:32;1.90;99.90
18392;DHT22;9322;50.932;5.318;2023-04-03T05:18:58;1.90;99.90
18392;DHT22;9322;50.932;5.318;2023-04-03T05:21:23;1.90;99.90
18392;DHT22;9322;50.932;5.318;2023-04-03T05:23:51;1.80;99.90
18392;DHT22;9322;50.932;5.318;2023-04-03T05:26:17;1.70;99.90
18392;DHT22;9322;50.932;5.318;2023-04-03T05:28:43;2.00;99.90
18392;DHT22;9322;50.932;5.318;2023-04-03T05:31:09;2.10;99.90
18392;DHT22;9322;50.932;5.318;2023-04-03T05:33:34;2.30;99.90
18392;DHT22;9322;50.932;5.318;2023-04-03T05:36:04;2.70;99.90
18392;DHT22;9322;50.932;5.318;2023-04-03T05:38:30;3.10;99.90
18392;DHT22;9322;50.932;5.318;2023-04-03T05:40:56;3.30;99.90
18392;DHT22;9322;50.932;5.318;2023-04-03T05:43:21;3.60;99.90
18392;DHT22;9322;50.932;5.318;2023-04-03T05:45:48;3.90;1.40
18392;DHT22;9322;50.932;5.318;2023-04-03T05:48:13;4.20;1.40
18392;DHT22;9322;50.932;5.318;2023-04-03T05:50:39;4.80;1.40
18392;DHT22;9322;50.932;5.318;2023-04-03T05:53:09;4.90;1.40
18392;DHT22;9322;50.932;5.318;2023-04-03T05:55:37;5.20;1.40
18392;DHT22;9322;50.932;5.318;2023-04-03T05:58:03;5.90;1.40
18392;DHT22;9322;50.932;5.318;2023-04-03T06:00:28;5.90;1.40
18392;DHT22;9322;50.932;5.318;2023-04-03T06:02:54;6.30;1.40
18392;DHT22;9322;50.932;5.318;2023-04-03T06:05:20;6.50;1.40
18392;DHT22;9322;50.932;5.318;2023-04-03T06:07:46;6.60;1.40
18392;DHT22;9322;50.932;5.318;2023-04-03T06:10:12;6.60;1.40
18392;DHT22;9322;50.932;5.318;2023-04-03T06:12:38;6.40;1.40
18392;DHT22;9322;50.932;5.318;2023-04-03T06:15:04;6.60;1.40
18392;DHT22;9322;50.932;5.318;2023-04-03T06:17:30;6.90;1.40
18392;DHT22;9322;50.932;5.318;2023-04-03T06:19:55;7.20;1.40
18392;DHT22;9322;50.932;5.318;2023-04-03T06:22:23;7.60;1.40
18392;DHT22;9322;50.932;5.318;2023-04-03T06:24:51;7.50;1.40
18392;DHT22;9322;50.932;5.318;2023-04-03T06:27:16;8.00;1.40
18392;DHT22;9322;50.932;5.318;2023-04-03T06:29:42;8.20;1.40
18392;DHT22;9322;50.932;5.318;2023-04-03T06:32:08;8.50;1.40
18392;DHT22;9322;50.932;5.318;2023-04-03T06:34:34;8.20;1.40
18392;DHT22;9322;50.932;5.318;2023-04-03T06:37:00;8.80;1.40
18392;DHT22;9322;50.932;5.318;2023-04-03T06:39:26;8.70;1.40
18392;DHT22;9322;50.932;5.318;2023-04-03T06:41:52;9.20;1.40
18392;DHT22;9322;50.932;5.318;2023-04-03T06:44:18;9.40;1.40
18392;DHT22;9322;50.932;5.318;2023-04-03T06:46:44;9.60;1.40
18392;DHT22;9322;50.932;5.318;2023-04-03T06:49:10;9.50;1.40
18392;DHT22;9322;50.932;5.318;2023-04-03T06:51:37;9.60;1.40
18392;DHT22;9322;50.932;5.318;2023-04-03T06:54:04;10.40;1.40
18392;DHT22;9322;50.932;5.318;2023-04-03T06:56:30;11.20;1.40
18392;DHT22;9322;50.932;5.318;2023-04-03T06:58:56;11.50;1.40
18392;DHT22;9322;50.932;5.318;2023-04-03T07:01:25;11.70;1.40
18392;DHT22;9322;50.932;5.318;2023-04-03T07:03:51;11.80;1.40
18392;DHT22;9322;50.932;5.318;2023-04-03T07:06:18;11.60;1.40
18392;DHT22;9322;50.932;5.318;2023-04-03T07:08:45;11.40;1.40
18392;DHT22;9322;50.932;5.318;2023-04-03T07:11:12;11.50;1.40
18392;DHT22;9322;50.932;5.318;2023-04-03T07:13:38;11.60;1.40
18392;DHT22;9322;50.932;5.318;2023-04-03T07:16:04;11.60;1.40
18392;DHT22;9322;50.932;5.318;2023-04-03T07:18:32;11.60;1.40
18392;DHT22;9322;50.932;5.318;2023-04-03T07:20:58;11.30;1.40
18392;DHT22;9322;50.932;5.318;2023-04-03T07:23:24;11.80;1.40
18392;DHT22;9322;50.932;5.318;2023-04-03T07:25:51;12.00;1.40
18392;DHT22;9322;50.932;5.318;2023-04-03T07:28:18;12.20;1.40
18392;DHT22;9322;50.932;5.318;2023-04-03T07:30:46;12.30;1.40
18392;DHT22;9322;50.932;5.318;2023-04-03T07:33:14;12.50;1.40
18392;DHT22;9322;50.932;5.318;2023-04-03T07:35:40;11.90;1.40
18392;DHT22;9322;50.932;5.318;2023-04-03T07:38:07;12.30;1.40
18392;DHT22;9322;50.932;5.318;2023-04-03T07:40:33;13.00;1.40
18392;DHT22;9322;50.932;5.318;2023-04-03T07:42:58;13.20;1.40
18392;DHT22;9322;50.932;5.318;2023-04-03T07:45:25;13.30;1.40
18392;DHT22;9322;50.932;5.318;2023-04-03T07:47:51;12.80;1.40
18392;DHT22;9322;50.932;5.318;2023-04-03T07:50:17;13.00;1.40
18392;DHT22;9322;50.932;5.318;2023-04-03T07:52:43;12.80;1.40
18392;DHT22;9322;50.932;5.318;2023-04-03T07:55:09;13.60;1.40
18392;DHT22;9322;50.932;5.318;2023-04-03T07:57:35;14.20;1.40
18392;DHT22;9322;50.932;5.318;2023-04-03T08:00:03;14.60;1.40
18392;DHT22;9322;50.932;5.318;2023-04-03T08:02:30;14.10;1.40
18392;DHT22;9322;50.932;5.318;2023-04-03T08:04:58;13.70;1.40
18392;DHT22;9322;50.932;5.318;2023-04-03T08:07:24;14.30;1.40
18392;DHT22;9322;50.932;5.318;2023-04-03T08:09:49;14.50;1.40
18392;DHT22;9322;50.932;5.318;2023-04-03T08:12:16;14.60;1.40
18392;DHT22;9322;50.932;5.318;2023-04-03T08:14:41;14.50;1.40
18392;DHT22;9322;50.932;5.318;2023-04-03T08:17:08;14.50;1.40
18392;DHT22;9322;50.932;5.318;2023-04-03T08:19:37;14.60;1.40
18392;DHT22;9322;50.932;5.318;2023-04-03T08:22:03;14.60;1.40
18392;DHT22;9322;50.932;5.318;2023-04-03T08:24:30;14.30;1.40
18392;DHT22;9322;50.932;5.318;2023-04-03T08:26:56;14.50;1.40
18392;DHT22;9322;50.932;5.318;2023-04-03T08:29:23;15.30;1.40
18392;DHT22;9322;50.932;5.318;2023-04-03T08:31:49;15.60;1.40
18392;DHT22;9322;50.932;5.318;2023-04-03T08:34:16;15.00;1.40
18392;DHT22;9322;50.932;5.318;2023-04-03T08:36:42;14.60;1.40
18392;DHT22;9322;50.932;5.318;2023-04-03T08:39:07;15.20;1.40
18392;DHT22;9322;50.932;5.318;2023-04-03T08:41:37;15.00;1.40
18392;DHT22;9322;50.932;5.318;2023-04-03T08:44:15;15.20;1.40
18392;DHT22;9322;50.932;5.318;2023-04-03T08:49:45;15.80;1.40
18392;DHT22;9322;50.932;5.318;2023-04-03T08:52:21;15.70;1.40
18392;DHT22;9322;50.932;5.318;2023-04-03T08:54:57;15.40;1.40
18392;DHT22;9322;50.932;5.318;2023-04-03T08:57:35;15.80;1.40
18392;DHT22;9322;50.932;5.318;2023-04-03T09:00:11;15.00;1.40
18392;DHT22;9322;50.932;5.318;2023-04-03T09:02:52;14.40;1.40
18392;DHT22;9322;50.932;5.318;2023-04-03T09:05:35;14.30;1.40
18392;DHT22;9322;50.932;5.318;2023-04-03T09:08:27;14.30;1.40
18392;DHT22;9322;50.932;5.318;2023-04-03T09:16:54;15.90;1.40
18392;DHT22;9322;50.932;5.318;2023-04-03T09:21:58;15.70;1.40
18392;DHT22;9322;50.932;5.318;2023-04-03T09:24:24;15.80;1.40
18392;DHT22;9322;50.932;5.318;2023-04-03T09:26:56;15.30;1.40
18392;DHT22;9322;50.932;5.318;2023-04-03T09:29:25;14.70;1.40
18392;DHT22;9322;50.932;5.318;2023-04-03T09:32:00;14.00;1.40
18392;DHT22;9322;50.932;5.318;2023-04-03T09:34:36;14.50;1.40
18392;DHT22;9322;50.932;5.318;2023-04-03T09:37:04;15.40;1.40
18392;DHT22;9322;50.932;5.318;2023-04-03T09:39:54;15.50;1.40
18392;DHT22;9322;50.932;5.318;2023-04-03T09:42:23;16.00;1.40
18392;DHT22;9322;50.932;5.318;2023-04-03T09:44:56;15.30;1.40
18392;DHT22;9322;50.932;5.318;2023-04-03T09:47:29;16.00;1.40
18392;DHT22;9322;50.932;5.318;2023-04-03T09:52:46;16.20;1.40
18392;DHT22;9322;50.932;5.318;2023-04-03T09:55:19;16.80;1.40
18392;DHT22;9322;50.932;5.318;2023-04-03T09:57:47;16.90;1.40
18392;DHT22;9322;50.932;5.318;2023-04-03T10:00:40;17.30;1.40
18392;DHT22;9322;50.932;5.318;2023-04-03T10:03:23;16.80;1.40
18392;DHT22;9322;50.932;5.318;2023-04-03T10:05:49;16.20;1.40
18392;DHT22;9322;50.932;5.318;2023-04-03T10:08:26;15.70;1.40
18392;DHT22;9322;50.932;5.318;2023-04-03T10:13:36;16.50;1.40
18392;DHT22;9322;50.932;5.318;2023-04-03T10:16:17;17.20;1.40
18392;DHT22;9322;50.932;5.318;2023-04-03T10:19:20;16.80;1.40
18392;DHT22;9322;50.932;5.318;2023-04-03T10:27:31;16.30;1.40
18392;DHT22;9322;50.932;5.318;2023-04-03T10:38:08;17.50;1.40
18392;DHT22;9322;50.932;5.318;2023-04-03T10:43:36;17.00;1.40
18392;DHT22;9322;50.932;5.318;2023-04-03T10:49:18;16.90;1.40
18392;DHT22;9322;50.932;5.318;2023-04-03T10:52:36;16.20;1.40
18392;DHT22;9322;50.932;5.318;2023-04-03T10:54:43;17.00;1.40
18392;DHT22;9322;50.932;5.318;2023-04-03T10:57:12;16.90;1.40
18392;DHT22;9322;50.932;5.318;2023-04-03T10:59:56;16.20;1.40
18392;DHT22;9322;50.932;5.318;2023-04-03T11:02:27;15.90;1.40
18392;DHT22;9322;50.932;5.318;2023-04-03T11:05:06;16.90;1.40
18392;DHT22;9322;50.932;5.318;2023-04-03T11:07:42;17.40;1.40
18392;DHT22;9322;50.932;5.318;2023-04-03T11:13:08;15.20;1.40
18392;DHT22;9322;50.932;5.318;2023-04-03T11:15:37;14.90;1.40
18392;DHT22;9322;50.932;5.318;2023-04-03T11:18:27;14.50;1.40
18392;DHT22;9322;50.932;5.318;2023-04-03T11:21:24;14.70;1.40
18392;DHT22;9322;50.932;5.318;2023-04-03T11:23:56;15.40;1.40
18392;DHT22;9322;50.932;5.318;2023-04-03T11:26:27;15.90;1.40
18392;DHT22;9322;50.932;5.318;2023-04-03T11:29:04;15.80;1.40
18392;DHT22;9322;50.932;5.318;2023-04-03T11:34:48;15.40;1.40
18392;DHT22;9322;50.932;5.318;2023-04-03T11:39:58;17.00;1.40
18392;DHT22;9322;50.932;5.318;2023-04-03T11:42:37;17.30;1.40
18392;DHT22;9322;50.932;5.318;2023-04-03T11:47:52;17.60;1.40
18392;DHT22;9322;50.932;5.318;2023-04-03T11:50:31;17.80;1.40
18392;DHT22;9322;50.932;5.318;2023-04-03T12:08:27;15.30;1.40
18392;DHT22;9322;50.932;5.318;2023-04-03T12:21:15;14.60;1.40
18392;DHT22;9322;50.932;5.318;2023-04-03T12:29:40;12.00;1.40
18392;DHT22;9322;50.932;5.318;2023-04-03T12:32:36;12.50;1.40
18392;DHT22;9322;50.932;5.318;2023-04-03T12:51:42;10.80;1.40
18392;DHT22;9322;50.932;5.318;2023-04-03T12:56:42;10.90;1.40
18392;DHT22;9322;50.932;5.318;2023-04-03T12:59:23;11.40;1.40
18392;DHT22;9322;50.932;5.318;2023-04-03T13:01:57;11.40;1.40
18392;DHT22;9322;50.932;5.318;2023-04-03T13:04:23;11.40;1.40
18392;DHT22;9322;50.932;5.318;2023-04-03T13:06:48;10.90;1.40
18392;DHT22;9322;50.932;5.318;2023-04-03T13:09:29;10.90;1.40
18392;DHT22;9322;50.932;5.318;2023-04-03T13:12:02;10.60;1.40
18392;DHT22;9322;50.932;5.318;2023-04-03T13:14:28;10.60;1.40
18392;DHT22;9322;50.932;5.318;2023-04-03T13:16:55;11.00;1.40
18392;DHT22;9322;50.932;5.318;2023-04-03T13:19:24;10.70;1.40
18392;DHT22;9322;50.932;5.318;2023-04-03T13:22:04;10.90;1.40
18392;DHT22;9322;50.932;5.318;2023-04-03T13:24:33;10.60;1.40
18392;DHT22;9322;50.932;5.318;2023-04-03T13:27:00;10.40;1.40
18392;DHT22;9322;50.932;5.318;2023-04-03T13:29:35;10.50;1.40
18392;DHT22;9322;50.932;5.318;2023-04-03T13:32:02;10.50;1.40
18392;DHT22;9322;50.932;5.318;2023-04-03T13:34:39;10.40;1.40
18392;DHT22;9322;50.932;5.318;2023-04-03T13:37:06;10.50;1.40
18392;DHT22;9322;50.932;5.318;2023-04-03T13:39:38;10.40;1.40
18392;DHT22;9322;50.932;5.318;2023-04-03T13:42:26;10.40;1.40
18392;DHT22;9322;50.932;5.318;2023-04-03T13:47:42;10.80;1.40
18392;DHT22;9322;50.932;5.318;2023-04-03T13:50:26;10.80;1.40
18392;DHT22;9322;50.932;5.318;2023-04-03T13:53:08;10.50;1.40
18392;DHT22;9322;50.932;5.318;2023-04-03T13:55:37;10.10;1.40
18392;DHT22;9322;50.932;5.318;2023-04-03T13:58:24;10.30;1.40
18392;DHT22;9322;50.932;5.318;2023-04-03T14:00:55;10.40;1.40
18392;DHT22;9322;50.932;5.318;2023-04-03T14:05:50;10.60;1.40
18392;DHT22;9322;50.932;5.318;2023-04-03T14:08:16;10.30;1.40
18392;DHT22;9322;50.932;5.318;2023-04-03T14:10:43;10.40;1.40
18392;DHT22;9322;50.932;5.318;2023-04-03T14:13:12;10.50;1.40
18392;DHT22;9322;50.932;5.318;2023-04-03T14:15:39;10.70;1.40
18392;DHT22;9322;50.932;5.318;2023-04-03T14:18:04;10.60;1.40
18392;DHT22;9322;50.932;5.318;2023-04-03T14:20:30;10.50;1.40
18392;DHT22;9322;50.932;5.318;2023-04-03T14:22:56;10.70;1.40
18392;DHT22;9322;50.932;5.318;2023-04-03T14:25:22;10.50;1.40
18392;DHT22;9322;50.932;5.318;2023-04-03T14:27:50;10.50;1.40
18392;DHT22;9322;50.932;5.318;2023-04-03T14:30:21;10.70;1.40
18392;DHT22;9322;50.932;5.318;2023-04-03T14:32:47;11.00;1.40
18392;DHT22;9322;50.932;5.318;2023-04-03T14:35:14;10.70;1.40
18392;DHT22;9322;50.932;5.318;2023-04-03T14:37:40;10.80;1.40
18392;DHT22;9322;50.932;5.318;2023-04-03T14:40:08;10.70;1.40
18392;DHT22;9322;50.932;5.318;2023-04-03T14:42:35;10.40;1.40
18392;DHT22;9322;50.932;5.318;2023-04-03T14:45:06;10.20;1.40
18392;DHT22;9322;50.932;5.318;2023-04-03T14:47:32;10.20;1.40
18392;DHT22;9322;50.932;5.318;2023-04-03T14:50:03;10.30;1.40
18392;DHT22;9322;50.932;5.318;2023-04-03T14:52:33;10.30;1.40
18392;DHT22;9322;50.932;5.318;2023-04-03T14:54:59;10.50;1.40
18392;DHT22;9322;50.932;5.318;2023-04-03T14:57:27;10.40;1.40
18392;DHT22;9322;50.932;5.318;2023-04-03T14:59:53;10.60;1.40
18392;DHT22;9322;50.932;5.318;2023-04-03T15:02:38;10.70;1.40
18392;DHT22;9322;50.932;5.318;2023-04-03T15:05:07;10.70;1.40
18392;DHT22;9322;50.932;5.318;2023-04-03T15:07:39;10.60;1.40
18392;DHT22;9322;50.932;5.318;2023-04-03T15:10:18;10.80;1.40
18392;DHT22;9322;50.932;5.318;2023-04-03T15:12:45;10.60;1.40
18392;DHT22;9322;50.932;5.318;2023-04-03T15:15:13;10.70;1.40
18392;DHT22;9322;50.932;5.318;2023-04-03T15:17:39;10.70;1.40
18392;DHT22;9322;50.932;5.318;2023-04-03T15:20:16;10.30;1.40
18392;DHT22;9322;50.932;5.318;2023-04-03T15:22:43;10.40;1.40
18392;DHT22;9322;50.932;5.318;2023-04-03T15:25:09;10.30;1.40
18392;DHT22;9322;50.932;5.318;2023-04-03T15:27:36;10.40;1.40
18392;DHT22;9322;50.932;5.318;2023-04-03T15:30:04;10.30;1.40
18392;DHT22;9322;50.932;5.318;2023-04-03T15:32:30;10.50;1.40
18392;DHT22;9322;50.932;5.318;2023-04-03T15:34:56;10.40;1.40
18392;DHT22;9322;50.932;5.318;2023-04-03T15:37:22;10.30;1.40
18392;DHT22;9322;50.932;5.318;2023-04-03T15:39:48;10.10;1.40
18392;DHT22;9322;50.932;5.318;2023-04-03T15:42:13;10.10;1.40
18392;DHT22;9322;50.932;5.318;2023-04-03T15:44:39;10.00;1.40
18392;DHT22;9322;50.932;5.318;2023-04-03T15:47:05;10.10;1.40
18392;DHT22;9322;50.932;5.318;2023-04-03T15:49:32;10.10;1.40
18392;DHT22;9322;50.932;5.318;2023-04-03T15:51:58;10.20;1.40
18392;DHT22;9322;50.932;5.318;2023-04-03T15:54:24;10.30;1.40
18392;DHT22;9322;50.932;5.318;2023-04-03T15:56:51;10.30;1.40
18392;DHT22;9322;50.932;5.318;2023-04-03T15:59:16;10.10;1.40
18392;DHT22;9322;50.932;5.318;2023-04-03T16:01:43;10.10;1.40
18392;DHT22;9322;50.932;5.318;2023-04-03T16:04:09;10.20;1.40
18392;DHT22;9322;50.932;5.318;2023-04-03T16:06:35;10.20;1.40
18392;DHT22;9322;50.932;5.318;2023-04-03T16:09:01;10.10;1.40
18392;DHT22;9322;50.932;5.318;2023-04-03T16:11:28;10.20;1.40
18392;DHT22;9322;50.932;5.318;2023-04-03T16:13:54;10.00;1.40
18392;DHT22;9322;50.932;5.318;2023-04-03T16:16:21;10.10;1.40
18392;DHT22;9322;50.932;5.318;2023-04-03T16:18:47;10.10;1.40
18392;DHT22;9322;50.932;5.318;2023-04-03T16:21:13;10.00;1.40
18392;DHT22;9322;50.932;5.318;2023-04-03T16:23:40;10.00;1.40
18392;DHT22;9322;50.932;5.318;2023-04-03T16:26:06;9.90;1.40
18392;DHT22;9322;50.932;5.318;2023-04-03T16:28:32;9.90;1.40
18392;DHT22;9322;50.932;5.318;2023-04-03T16:30:59;9.90;1.40
18392;DHT22;9322;50.932;5.318;2023-04-03T16:33:26;9.70;1.40
18392;DHT22;9322;50.932;5.318;2023-04-03T16:35:52;9.80;1.40
18392;DHT22;9322;50.932;5.318;2023-04-03T16:38:18;10.00;1.40
18392;DHT22;9322;50.932;5.318;2023-04-03T16:40:45;9.60;1.40
18392;DHT22;9322;50.932;5.318;2023-04-03T16:43:11;9.50;1.40
18392;DHT22;9322;50.932;5.318;2023-04-03T16:45:37;9.60;1.40
18392;DHT22;9322;50.932;5.318;2023-04-03T16:48:04;9.60;1.40
18392;DHT22;9322;50.932;5.318;2023-04-03T16:50:30;9.70;1.40
18392;DHT22;9322;50.932;5.318;2023-04-03T16:52:55;9.60;1.40
18392;DHT22;9322;50.932;5.318;2023-04-03T16:55:21;9.60;1.40
18392;DHT22;9322;50.932;5.318;2023-04-03T16:57:47;9.50;1.40
18392;DHT22;9322;50.932;5.318;2023-04-03T17:00:13;9.30;1.40
18392;DHT22;9322;50.932;5.318;2023-04-03T17:02:40;9.20;1.40
18392;DHT22;9322;50.932;5.318;2023-04-03T17:05:06;9.30;1.40
18392;DHT22;9322;50.932;5.318;2023-04-03T17:07:32;9.50;1.40
18392;DHT22;9322;50.932;5.318;2023-04-03T17:09:58;9.60;1.40
18392;DHT22;9322;50.932;5.318;2023-04-03T17:12:24;9.60;1.40
18392;DHT22;9322;50.932;5.318;2023-04-03T17:14:50;9.50;1.40
18392;DHT22;9322;50.932;5.318;2023-04-03T17:17:18;9.50;1.40
18392;DHT22;9322;50.932;5.318;2023-04-03T17:19:45;9.50;1.40
18392;DHT22;9322;50.932;5.318;2023-04-03T17:22:11;9.40;1.40
18392;DHT22;9322;50.932;5.318;2023-04-03T17:24:37;9.40;1.40
18392;DHT22;9322;50.932;5.318;2023-04-03T17:27:03;9.30;1.40
18392;DHT22;9322;50.932;5.318;2023-04-03T17:29:29;9.20;1.40
18392;DHT22;9322;50.932;5.318;2023-04-03T17:31:54;9.30;1.40
18392;DHT22;9322;50.932;5.318;2023-04-03T17:34:20;9.20;1.40
18392;DHT22;9322;50.932;5.318;2023-04-03T17:36:46;9.10;1.40
18392;DHT22;9322;50.932;5.318;2023-04-03T17:39:12;9.00;1.40
18392;DHT22;9322;50.932;5.318;2023-04-03T17:41:37;9.10;1.40
18392;DHT22;9322;50.932;5.318;2023-04-03T17:44:03;8.80;1.40
18392;DHT22;9322;50.932;5.318;2023-04-03T17:46:29;8.70;1.40
18392;DHT22;9322;50.932;5.318;2023-04-03T17:48:55;8.70;1.40
18392;DHT22;9322;50.932;5.318;2023-04-03T17:51:24;8.70;1.40
18392;DHT22;9322;50.932;5.318;2023-04-03T17:53:50;8.70;1.40
18392;DHT22;9322;50.932;5.318;2023-04-03T17:56:18;8.90;1.40
18392;DHT22;9322;50.932;5.318;2023-04-03T17:58:45;8.70;1.40
18392;DHT22;9322;50.932;5.318;2023-04-03T18:01:16;8.60;1.40